Time;durP1;ratioP1;P1;durP2;ratioP2;P2;SDS_P1;SDS_P2;PMS_P1;PMS_P2;Temp;Humidity;BMP_temperature;BMP_pressure;BME280_temperature;BME280_humidity;BME280_pressure;Samples;Min_cycle;Max_cycle;Signal;HPM_P1;HPM_P2
2023/06/16 00:00:37;;;;;;;5.50;4.93;;;;;;;;;;5115179;28;20399;-69
2023/06/16 00:03:03;;;;;;;5.83;5.33;;;;;;;;;;5095990;28;20422;-68
2023/06/16 00:05:29;;;;;;;4.80;4.40;;;;;;;;;;5115002;28;20525;-69
2023/06/16 00:08:00;;;;;;;5.20;4.30;;;;;;;;;;5115365;28;20450;-68
2023/06/16 00:10:26;;;;;;;4.63;4.23;;;;;;;;;;5098022;28;20375;-69
2023/06/16 00:12:53;;;;;;;5.53;4.47;;;;;;;;;;5115149;28;20450;-69
2023/06/16 00:15:20;;;;;;;5.07;4.60;;;;;;;;;;5114981;28;20427;-69
2023/06/16 00:17:46;;;;;;;4.70;4.30;;;;;;;;;;5114630;28;20475;-68
2023/06/16 00:20:19;;;;;;;5.47;4.97;;;;;;;;;;5115087;28;20536;-69
2023/06/16 00:22:47;;;;;;;5.07;4.60;;;;;;;;;;5096576;28;20416;-69
2023/06/16 00:25:13;;;;;;;5.40;4.33;;;;;;;;;;5114577;28;20515;-68
2023/06/16 00:27:39;;;;;;;4.70;4.30;;;;;;;;;;5114955;28;20421;-69
2023/06/16 00:30:06;;;;;;;4.83;4.43;;;;;;;;;;5114893;28;20410;-67
2023/06/16 00:32:32;;;;;;;5.10;4.70;;;;;;;;;;5114008;28;20506;-68
2023/06/16 00:34:58;;;;;;;4.40;4.00;;;;;;;;;;5114167;28;20434;-69
2023/06/16 00:37:24;;;;;;;4.50;4.10;;;;;;;;;;5114905;28;20436;-67
2023/06/16 00:39:50;;;;;;;4.63;4.23;;;;;;;;;;5114681;28;20869;-69
2023/06/16 00:42:16;;;;;;;4.20;3.90;;;;;;;;;;5114836;28;20482;-70
2023/06/16 00:44:42;;;;;;;5.10;4.60;;;;;;;;;;5114241;28;20506;-68
2023/06/16 00:47:08;;;;;;;4.17;3.87;;;;;;;;;;5114395;28;20798;-69
2023/06/16 00:49:36;;;;;;;4.20;3.80;;;;;;;;;;5113939;28;20402;-69
2023/06/16 00:52:02;;;;;;;5.37;4.33;;;;;;;;;;5114221;28;20437;-69
2023/06/16 00:54:28;;;;;;;6.77;4.40;;;;;;;;;;5113724;28;20442;-69
2023/06/16 00:56:55;;;;;;;5.70;5.20;;;;;;;;;;5095875;28;20482;-69
2023/06/16 00:59:24;;;;;;;5.03;4.43;;;;;;;;;;5114072;28;20494;-69
2023/06/16 01:01:52;;;;;;;4.93;4.40;;;;;;;;;;5113961;28;20394;-68
2023/06/16 01:04:20;;;;;;;4.70;4.27;;;;;;;;;;5113614;28;20391;-69
2023/06/16 01:06:49;;;;;;;5.13;4.67;;;;;;;;;;5114248;28;20514;-68
2023/06/16 01:09:19;;;;;;;6.83;5.47;;;;;;;;;;5111572;28;20489;-69
2023/06/16 01:11:45;;;;;;;4.77;4.37;;;;;;;;;;5113974;28;20777;-69
2023/06/16 01:14:15;;;;;;;4.43;4.03;;;;;;;;;;5114072;28;20453;-69
2023/06/16 01:16:42;;;;;;;4.83;4.43;;;;;;;;;;5113011;28;20427;-69
2023/06/16 01:19:10;;;;;;;6.43;4.90;;;;;;;;;;5114087;28;20401;-69
2023/06/16 01:22:06;;;;;;;4.70;4.30;;;;;;;;;;5114147;28;20395;-69
2023/06/16 01:24:33;;;;;;;4.70;4.30;;;;;;;;;;5092563;28;20526;-69
2023/06/16 01:26:59;;;;;;;4.90;4.50;;;;;;;;;;5113628;28;20406;-69
2023/06/16 01:29:26;;;;;;;5.07;4.67;;;;;;;;;;5113533;28;20950;-70
2023/06/16 01:31:53;;;;;;;6.23;4.93;;;;;;;;;;5113077;28;20417;-69
2023/06/16 01:34:20;;;;;;;4.47;4.17;;;;;;;;;;5113214;28;20538;-69
2023/06/16 01:36:46;;;;;;;6.30;5.10;;;;;;;;;;5113449;28;20533;-69
2023/06/16 01:39:14;;;;;;;6.43;4.83;;;;;;;;;;5113868;28;20402;-69
2023/06/16 01:41:41;;;;;;;5.87;5.37;;;;;;;;;;5113375;28;20447;-69
2023/06/16 01:44:07;;;;;;;6.03;5.43;;;;;;;;;;5113350;28;20414;-69
2023/06/16 01:46:34;;;;;;;5.67;5.20;;;;;;;;;;5113280;28;20418;-69
2023/06/16 01:49:00;;;;;;;7.20;5.00;;;;;;;;;;5113012;28;20406;-68
2023/06/16 01:51:26;;;;;;;5.70;5.20;;;;;;;;;;5113994;28;20406;-69
2023/06/16 01:53:53;;;;;;;5.90;5.40;;;;;;;;;;5113613;28;20453;-69
2023/06/16 01:56:19;;;;;;;5.33;4.83;;;;;;;;;;5113406;28;20520;-69
2023/06/16 01:58:45;;;;;;;5.90;5.30;;;;;;;;;;5113247;28;20407;-69
2023/06/16 02:01:15;;;;;;;5.33;4.93;;;;;;;;;;5113238;28;20777;-69
2023/06/16 02:03:42;;;;;;;7.00;4.57;;;;;;;;;;5112883;28;20489;-69
2023/06/16 02:06:10;;;;;;;4.97;4.57;;;;;;;;;;5113602;28;20423;-69
2023/06/16 02:08:37;;;;;;;6.30;5.30;;;;;;;;;;5112845;28;20410;-69
2023/06/16 02:11:03;;;;;;;8.27;4.90;;;;;;;;;;5113696;28;20430;-69
2023/06/16 02:13:30;;;;;;;5.70;5.20;;;;;;;;;;5113150;28;20464;-69
2023/06/16 02:15:56;;;;;;;5.37;4.87;;;;;;;;;;5113128;28;20422;-69
2023/06/16 02:18:27;;;;;;;5.50;4.43;;;;;;;;;;5112666;28;20398;-69
2023/06/16 02:20:53;;;;;;;5.80;5.30;;;;;;;;;;5113277;28;20410;-69
2023/06/16 02:23:20;;;;;;;5.27;4.80;;;;;;;;;;5112947;28;20462;-69
2023/06/16 02:25:46;;;;;;;5.57;5.10;;;;;;;;;;5112851;28;20428;-69
2023/06/16 02:28:13;;;;;;;5.57;5.00;;;;;;;;;;5113612;28;20558;-69
2023/06/16 02:30:39;;;;;;;6.37;5.87;;;;;;;;;;5117174;28;20409;-71
2023/06/16 02:33:05;;;;;;;7.03;5.60;;;;;;;;;;5097834;28;20453;-69
2023/06/16 02:35:31;;;;;;;5.60;5.10;;;;;;;;;;5116699;28;20528;-69
2023/06/16 02:37:57;;;;;;;6.67;5.90;;;;;;;;;;5117009;28;20473;-69
2023/06/16 02:40:23;;;;;;;6.40;4.90;;;;;;;;;;5116760;28;20406;-69
2023/06/16 02:42:49;;;;;;;5.73;5.13;;;;;;;;;;5116796;28;20936;-69
2023/06/16 02:45:16;;;;;;;5.33;4.77;;;;;;;;;;5116643;28;20421;-69
2023/06/16 02:47:42;;;;;;;5.87;5.37;;;;;;;;;;5116401;28;20405;-69
2023/06/16 02:50:08;;;;;;;5.10;4.63;;;;;;;;;;5116400;28;20399;-69
2023/06/16 02:52:35;;;;;;;6.27;5.70;;;;;;;;;;5116864;28;20493;-69
2023/06/16 02:55:01;;;;;;;5.53;5.07;;;;;;;;;;5116662;28;20855;-69
2023/06/16 02:57:27;;;;;;;5.27;4.77;;;;;;;;;;5116944;28;20736;-70
2023/06/16 02:59:55;;;;;;;5.60;5.03;;;;;;;;;;5116682;28;20422;-69
2023/06/16 03:02:21;;;;;;;6.37;5.77;;;;;;;;;;5115667;28;20405;-69
2023/06/16 03:04:48;;;;;;;7.43;5.50;;;;;;;;;;5116177;28;20813;-69
2023/06/16 03:07:14;;;;;;;5.87;5.30;;;;;;;;;;5116525;28;20394;-69
2023/06/16 03:09:41;;;;;;;6.17;5.47;;;;;;;;;;5116527;28;20394;-69
2023/06/16 03:12:08;;;;;;;7.77;5.90;;;;;;;;;;5116213;28;20405;-69
2023/06/16 03:14:34;;;;;;;7.47;6.13;;;;;;;;;;5116103;28;20453;-69
2023/06/16 03:17:00;;;;;;;6.57;5.83;;;;;;;;;;5115984;28;20399;-69
2023/06/16 03:19:26;;;;;;;6.70;5.90;;;;;;;;;;5115996;28;20428;-69
2023/06/16 03:21:52;;;;;;;8.70;6.00;;;;;;;;;;5116304;28;20402;-69
2023/06/16 03:24:18;;;;;;;5.50;5.03;;;;;;;;;;5116645;28;20486;-69
2023/06/16 03:26:45;;;;;;;5.20;4.80;;;;;;;;;;5117102;28;20440;-69
2023/06/16 03:29:14;;;;;;;6.10;5.50;;;;;;;;;;5117428;28;20405;-69
2023/06/16 03:31:41;;;;;;;6.10;5.60;;;;;;;;;;5115649;28;20394;-69
2023/06/16 03:34:07;;;;;;;5.87;5.37;;;;;;;;;;5095660;28;20479;-68
2023/06/16 03:36:36;;;;;;;6.97;6.27;;;;;;;;;;5095558;28;20762;-68
2023/06/16 03:39:05;;;;;;;6.37;5.87;;;;;;;;;;5095359;28;20391;-68
2023/06/16 03:41:32;;;;;;;7.20;5.73;;;;;;;;;;5094574;28;20399;-70
2023/06/16 03:43:59;;;;;;;6.13;5.53;;;;;;;;;;5095173;28;20427;-68
2023/06/16 03:46:26;;;;;;;6.20;5.70;;;;;;;;;;5095243;28;20428;-70
2023/06/16 03:48:52;;;;;;;6.43;5.73;;;;;;;;;;5094821;28;20819;-70
2023/06/16 03:51:18;;;;;;;7.33;5.17;;;;;;;;;;5095102;28;20435;-70
2023/06/16 03:53:44;;;;;;;5.67;5.17;;;;;;;;;;5094957;28;20453;-70
2023/06/16 03:56:10;;;;;;;8.33;5.70;;;;;;;;;;5095103;28;20411;-68
2023/06/16 03:58:36;;;;;;;6.13;5.50;;;;;;;;;;5095172;28;20404;-70
2023/06/16 04:01:03;;;;;;;6.87;6.30;;;;;;;;;;5095043;28;20402;-70
2023/06/16 04:03:29;;;;;;;6.03;5.37;;;;;;;;;;5109262;28;20893;-70
2023/06/16 04:05:55;;;;;;;5.40;4.90;;;;;;;;;;5115149;28;20426;-70
2023/06/16 04:08:21;;;;;;;5.73;5.20;;;;;;;;;;5114830;28;20535;-70
2023/06/16 04:10:47;;;;;;;5.93;5.43;;;;;;;;;;5115225;28;20402;-69
2023/06/16 04:13:13;;;;;;;6.87;6.10;;;;;;;;;;5115028;28;20453;-69
2023/06/16 04:15:39;;;;;;;6.50;5.50;;;;;;;;;;5115223;28;20425;-69
2023/06/16 04:18:06;;;;;;;5.80;5.30;;;;;;;;;;5114903;28;20448;-69
2023/06/16 04:20:32;;;;;;;5.63;5.13;;;;;;;;;;5115105;28;20401;-69
2023/06/16 04:22:58;;;;;;;6.00;5.47;;;;;;;;;;5115560;28;20903;-69
2023/06/16 04:25:24;;;;;;;5.77;5.27;;;;;;;;;;5114625;28;20529;-69
2023/06/16 04:27:50;;;;;;;6.27;5.77;;;;;;;;;;5115160;28;20409;-70
2023/06/16 04:30:22;;;;;;;7.47;5.70;;;;;;;;;;5114809;28;20920;-69
2023/06/16 04:32:49;;;;;;;6.03;5.53;;;;;;;;;;5113450;28;20548;-68
2023/06/16 04:35:15;;;;;;;5.83;5.33;;;;;;;;;;5114564;28;20477;-69
2023/06/16 04:37:43;;;;;;;6.33;5.73;;;;;;;;;;5114707;28;20398;-69
2023/06/16 04:40:09;;;;;;;6.07;5.53;;;;;;;;;;5114212;28;20395;-69
2023/06/16 04:42:35;;;;;;;5.30;4.90;;;;;;;;;;5114173;28;20403;-69
2023/06/16 04:45:01;;;;;;;5.67;5.17;;;;;;;;;;5113650;28;20453;-69
2023/06/16 04:47:27;;;;;;;8.57;5.40;;;;;;;;;;5095819;28;20781;-69
2023/06/16 04:49:53;;;;;;;6.80;6.20;;;;;;;;;;5114026;28;20407;-69
2023/06/16 04:52:19;;;;;;;5.20;4.73;;;;;;;;;;5113482;28;20402;-69
2023/06/16 04:54:46;;;;;;;6.73;5.60;;;;;;;;;;5113099;28;20461;-69
2023/06/16 04:57:12;;;;;;;6.60;5.97;;;;;;;;;;5114201;28;20892;-69
2023/06/16 04:59:38;;;;;;;6.07;5.57;;;;;;;;;;5114326;28;20402;-69
2023/06/16 05:02:04;;;;;;;4.90;4.50;;;;;;;;;;5113466;28;20490;-69
2023/06/16 05:04:31;;;;;;;6.07;5.47;;;;;;;;;;5095483;28;20543;-69
2023/06/16 05:06:57;;;;;;;5.93;5.50;;;;;;;;;;5114185;28;20405;-69
2023/06/16 05:09:23;;;;;;;7.70;7.00;;;;;;;;;;5113967;28;20901;-70
2023/06/16 05:11:49;;;;;;;6.97;6.30;;;;;;;;;;5113876;28;20433;-69
2023/06/16 05:14:15;;;;;;;5.50;5.00;;;;;;;;;;5114223;28;20908;-69
2023/06/16 05:16:41;;;;;;;5.93;5.50;;;;;;;;;;5113501;28;20422;-67
2023/06/16 05:19:07;;;;;;;6.13;5.63;;;;;;;;;;5113500;28;20469;-69
2023/06/16 05:21:34;;;;;;;7.07;5.07;;;;;;;;;;5095288;28;20446;-69
2023/06/16 05:24:00;;;;;;;5.07;4.67;;;;;;;;;;5113721;28;20403;-70
2023/06/16 05:26:26;;;;;;;10.80;6.17;;;;;;;;;;5113407;28;20422;-69
2023/06/16 05:28:53;;;;;;;11.20;6.30;;;;;;;;;;5113931;28;20861;-69
2023/06/16 05:31:19;;;;;;;7.83;5.60;;;;;;;;;;5113966;28;20908;-70
2023/06/16 05:33:45;;;;;;;6.00;5.40;;;;;;;;;;5112214;28;20548;-69
2023/06/16 05:36:11;;;;;;;7.90;5.73;;;;;;;;;;5113978;28;20510;-70
2023/06/16 05:38:37;;;;;;;4.97;4.60;;;;;;;;;;5095132;28;20753;-69
2023/06/16 05:41:03;;;;;;;7.80;6.20;;;;;;;;;;5113306;28;20407;-69
2023/06/16 05:43:29;;;;;;;6.40;5.73;;;;;;;;;;5113677;28;20398;-70
2023/06/16 05:45:55;;;;;;;6.00;5.50;;;;;;;;;;5113300;28;20422;-69
2023/06/16 05:48:21;;;;;;;6.00;5.40;;;;;;;;;;5112927;28;20409;-69
2023/06/16 05:50:47;;;;;;;6.43;5.77;;;;;;;;;;5113340;28;20794;-69
2023/06/16 05:53:13;;;;;;;7.10;5.60;;;;;;;;;;5113796;28;20438;-70
2023/06/16 05:55:39;;;;;;;5.80;5.30;;;;;;;;;;5113032;28;20418;-69
2023/06/16 05:58:05;;;;;;;6.67;6.00;;;;;;;;;;5113401;28;20429;-69
2023/06/16 06:00:33;;;;;;;6.33;5.40;;;;;;;;;;5113562;28;20474;-70
2023/06/16 06:02:59;;;;;;;6.37;5.77;;;;;;;;;;5112505;28;20481;-69
2023/06/16 06:05:25;;;;;;;5.83;5.33;;;;;;;;;;5113462;28;20478;-70
2023/06/16 06:07:52;;;;;;;9.17;5.07;;;;;;;;;;5113465;28;20731;-69
2023/06/16 06:10:18;;;;;;;5.87;5.37;;;;;;;;;;5113391;28;20391;-69
2023/06/16 06:12:44;;;;;;;6.53;4.93;;;;;;;;;;5112966;28;20701;-70
2023/06/16 06:15:10;;;;;;;6.00;5.30;;;;;;;;;;5112992;28;20414;-69
2023/06/16 06:17:36;;;;;;;9.30;5.67;;;;;;;;;;5112920;28;20391;-70
2023/06/16 06:20:02;;;;;;;6.27;5.67;;;;;;;;;;5112742;28;20439;-70
2023/06/16 06:22:32;;;;;;;6.30;5.37;;;;;;;;;;5113673;28;20395;-70
2023/06/16 06:24:58;;;;;;;6.70;5.40;;;;;;;;;;5113176;28;20438;-70
2023/06/16 06:27:25;;;;;;;6.90;6.00;;;;;;;;;;5113839;28;20398;-69
2023/06/16 06:29:51;;;;;;;5.90;5.30;;;;;;;;;;5112975;28;20398;-70
2023/06/16 06:32:17;;;;;;;5.37;4.77;;;;;;;;;;5111931;28;20847;-69
2023/06/16 06:34:43;;;;;;;5.13;4.73;;;;;;;;;;5112755;28;20959;-70
2023/06/16 06:37:16;;;;;;;5.27;4.77;;;;;;;;;;5113715;28;20499;-70
2023/06/16 06:39:42;;;;;;;5.60;5.10;;;;;;;;;;5113462;28;20386;-69
2023/06/16 06:42:11;;;;;;;5.70;5.10;;;;;;;;;;5095824;28;20403;-69
2023/06/16 06:44:37;;;;;;;6.20;5.60;;;;;;;;;;5112913;28;20421;-69
2023/06/16 06:47:04;;;;;;;6.53;5.90;;;;;;;;;;5113326;28;20877;-69
2023/06/16 06:49:30;;;;;;;6.77;6.07;;;;;;;;;;5112743;28;20880;-70
2023/06/16 06:51:56;;;;;;;6.43;5.80;;;;;;;;;;5113292;28;20399;-69
2023/06/16 06:54:22;;;;;;;8.80;5.40;;;;;;;;;;5113431;28;20548;-70
2023/06/16 06:56:48;;;;;;;5.70;5.20;;;;;;;;;;5113131;28;20409;-69
2023/06/16 06:59:14;;;;;;;5.57;5.10;;;;;;;;;;5113561;28;20742;-70
2023/06/16 07:01:41;;;;;;;6.00;5.40;;;;;;;;;;5112973;28;20548;-70
2023/06/16 07:04:06;;;;;;;7.03;5.67;;;;;;;;;;5111332;28;20414;-69
2023/06/16 07:06:33;;;;;;;7.80;6.03;;;;;;;;;;5112782;28;20818;-70
2023/06/16 07:08:59;;;;;;;7.23;6.50;;;;;;;;;;5112530;28;20417;-68
2023/06/16 07:11:25;;;;;;;6.50;5.90;;;;;;;;;;5112825;28;20401;-70
2023/06/16 07:13:51;;;;;;;6.70;6.10;;;;;;;;;;5112806;28;20453;-70
2023/06/16 07:16:17;;;;;;;6.80;6.00;;;;;;;;;;5114766;28;20419;-70
2023/06/16 07:18:43;;;;;;;6.23;5.63;;;;;;;;;;5115753;28;20398;-70
2023/06/16 07:21:09;;;;;;;6.07;5.10;;;;;;;;;;5116349;28;20466;-68
2023/06/16 07:23:35;;;;;;;5.83;5.23;;;;;;;;;;5116423;28;20402;-69
2023/06/16 07:26:01;;;;;;;7.30;5.30;;;;;;;;;;5116129;28;20422;-69
2023/06/16 07:28:28;;;;;;;5.60;5.00;;;;;;;;;;5115996;28;20773;-70
2023/06/16 07:30:55;;;;;;;8.90;5.57;;;;;;;;;;5116146;28;20467;-69
2023/06/16 07:33:21;;;;;;;6.50;5.80;;;;;;;;;;5114814;28;20457;-69
2023/06/16 07:35:48;;;;;;;6.33;5.40;;;;;;;;;;5115590;28;20798;-70
2023/06/16 07:38:15;;;;;;;6.63;6.03;;;;;;;;;;5115676;28;20414;-70
2023/06/16 07:40:41;;;;;;;6.73;5.37;;;;;;;;;;5115821;28;20776;-70
2023/06/16 07:43:07;;;;;;;7.43;6.03;;;;;;;;;;5115629;28;20422;-69
2023/06/16 07:45:34;;;;;;;7.17;6.13;;;;;;;;;;5116126;28;20430;-69
2023/06/16 07:48:00;;;;;;;10.60;5.67;;;;;;;;;;5115986;28;20406;-70
2023/06/16 07:50:26;;;;;;;5.50;5.00;;;;;;;;;;5115617;28;20398;-69
2023/06/16 07:52:52;;;;;;;8.03;6.37;;;;;;;;;;5115666;28;20442;-69
2023/06/16 07:55:19;;;;;;;7.20;6.37;;;;;;;;;;5115809;28;20901;-69
2023/06/16 07:57:45;;;;;;;7.40;5.23;;;;;;;;;;5116373;28;20450;-69
2023/06/16 08:00:12;;;;;;;8.70;5.30;;;;;;;;;;5115326;28;20860;-70
2023/06/16 08:02:39;;;;;;;8.03;5.80;;;;;;;;;;5115071;28;20416;-70
2023/06/16 08:05:06;;;;;;;6.20;5.47;;;;;;;;;;5114892;28;20423;-68
2023/06/16 08:07:32;;;;;;;6.10;5.40;;;;;;;;;;5115511;28;20403;-68
2023/06/16 08:09:58;;;;;;;5.50;5.00;;;;;;;;;;5115553;28;20399;-69
2023/06/16 08:12:24;;;;;;;6.10;4.93;;;;;;;;;;5115020;28;20402;-69
2023/06/16 08:14:50;;;;;;;7.13;5.17;;;;;;;;;;5115384;28;20939;-70
2023/06/16 08:17:16;;;;;;;5.87;4.93;;;;;;;;;;5115164;28;20406;-67
2023/06/16 08:19:42;;;;;;;11.80;6.30;;;;;;;;;;5114510;28;20447;-69
2023/06/16 08:22:08;;;;;;;8.63;5.70;;;;;;;;;;5115205;28;20398;-70
2023/06/16 08:24:35;;;;;;;6.30;5.70;;;;;;;;;;5114843;28;20423;-69
2023/06/16 08:27:01;;;;;;;6.90;5.40;;;;;;;;;;5115005;28;20964;-70
2023/06/16 08:29:30;;;;;;;5.77;4.50;;;;;;;;;;5114990;28;20916;-69
2023/06/16 08:31:56;;;;;;;6.97;5.07;;;;;;;;;;5114210;28;20418;-70
2023/06/16 08:34:22;;;;;;;6.73;5.40;;;;;;;;;;5094638;28;20455;-70
2023/06/16 08:36:49;;;;;;;6.90;4.60;;;;;;;;;;5094318;28;20427;-70
2023/06/16 08:39:15;;;;;;;7.67;4.47;;;;;;;;;;5094127;28;20395;-69
2023/06/16 08:41:42;;;;;;;4.90;4.40;;;;;;;;;;5094280;28;20399;-70
2023/06/16 08:44:08;;;;;;;5.93;4.77;;;;;;;;;;5093938;28;20549;-68
2023/06/16 08:46:35;;;;;;;4.23;3.90;;;;;;;;;;5094015;28;20415;-69
2023/06/16 08:49:01;;;;;;;7.37;3.83;;;;;;;;;;5101826;28;20442;-70
2023/06/16 08:51:28;;;;;;;6.97;4.17;;;;;;;;;;5114833;28;20407;-69
2023/06/16 08:54:00;;;;;;;4.73;4.20;;;;;;;;;;5114257;28;20944;-69
2023/06/16 08:56:27;;;;;;;6.50;4.77;;;;;;;;;;5113479;28;20509;-69
2023/06/16 08:58:54;;;;;;;5.53;4.80;;;;;;;;;;5114621;28;20391;-69
2023/06/16 09:01:20;;;;;;;6.73;4.63;;;;;;;;;;5115058;28;20766;-69
2023/06/16 09:03:48;;;;;;;5.80;3.90;;;;;;;;;;5114436;28;20479;-70
2023/06/16 09:06:14;;;;;;;4.77;3.80;;;;;;;;;;5114198;28;20429;-70
2023/06/16 09:08:40;;;;;;;6.70;4.17;;;;;;;;;;5114382;28;20399;-69
2023/06/16 09:11:09;;;;;;;4.53;3.73;;;;;;;;;;5114447;28;20433;-69
2023/06/16 09:13:36;;;;;;;5.63;3.73;;;;;;;;;;5114255;28;20450;-69
2023/06/16 09:16:03;;;;;;;5.37;4.67;;;;;;;;;;5114128;28;20777;-70
2023/06/16 09:18:41;;;;;;;7.40;4.07;;;;;;;;;;5113690;28;20406;-69
2023/06/16 09:21:08;;;;;;;4.67;4.20;;;;;;;;;;5114097;28;20398;-67
2023/06/16 09:23:35;;;;;;;9.40;4.40;;;;;;;;;;5113945;28;20484;-70
2023/06/16 09:26:01;;;;;;;5.43;4.30;;;;;;;;;;5114204;28;20760;-70
2023/06/16 09:28:34;;;;;;;5.07;4.27;;;;;;;;;;5114512;28;20403;-70
2023/06/16 09:31:02;;;;;;;5.50;4.90;;;;;;;;;;5113687;28;20453;-69
2023/06/16 09:33:29;;;;;;;4.93;3.83;;;;;;;;;;5112228;28;20454;-70
2023/06/16 09:35:55;;;;;;;4.40;4.00;;;;;;;;;;5112898;28;20534;-70
2023/06/16 09:38:21;;;;;;;6.27;4.57;;;;;;;;;;5113218;28;20441;-70
2023/06/16 09:40:48;;;;;;;5.80;4.10;;;;;;;;;;5113700;28;20474;-70
2023/06/16 09:43:14;;;;;;;4.67;4.23;;;;;;;;;;5113368;28;20463;-70
2023/06/16 09:45:40;;;;;;;4.50;3.70;;;;;;;;;;5113528;28;20833;-70
2023/06/16 09:48:10;;;;;;;7.30;4.20;;;;;;;;;;5113194;28;20413;-69
2023/06/16 09:50:37;;;;;;;5.97;4.40;;;;;;;;;;5112821;28;20387;-70
2023/06/16 09:53:07;;;;;;;7.53;4.53;;;;;;;;;;5112971;28;20442;-69
2023/06/16 09:55:36;;;;;;;6.43;3.90;;;;;;;;;;5112970;28;20448;-69
2023/06/16 09:58:02;;;;;;;5.80;4.77;;;;;;;;;;5113016;28;20391;-69
2023/06/16 10:00:30;;;;;;;4.80;4.40;;;;;;;;;;5113102;28;20795;-70
2023/06/16 10:02:57;;;;;;;5.43;4.20;;;;;;;;;;5112323;28;20456;-69
2023/06/16 10:05:25;;;;;;;5.93;4.43;;;;;;;;;;5094033;28;20422;-69
2023/06/16 10:07:52;;;;;;;7.80;4.97;;;;;;;;;;5112592;28;20407;-70
2023/06/16 10:10:21;;;;;;;7.10;5.00;;;;;;;;;;5112895;28;20489;-70
2023/06/16 10:12:49;;;;;;;5.07;4.57;;;;;;;;;;5112479;28;20398;-69
2023/06/16 10:15:22;;;;;;;5.90;4.97;;;;;;;;;;5112834;28;20438;-70
2023/06/16 10:17:49;;;;;;;4.37;3.97;;;;;;;;;;5112411;28;20387;-69
2023/06/16 10:20:17;;;;;;;7.63;4.20;;;;;;;;;;5112333;28;20888;-70
2023/06/16 10:22:43;;;;;;;4.20;3.80;;;;;;;;;;5112648;28;20401;-70
2023/06/16 10:25:10;;;;;;;4.73;4.07;;;;;;;;;;5112513;28;20419;-69
2023/06/16 10:27:36;;;;;;;5.73;4.40;;;;;;;;;;5112299;28;20884;-70
2023/06/16 10:30:03;;;;;;;4.90;4.40;;;;;;;;;;5112727;28;20449;-69
2023/06/16 10:32:30;;;;;;;7.87;4.57;;;;;;;;;;5111444;28;20980;-69
2023/06/16 10:34:58;;;;;;;6.60;4.37;;;;;;;;;;5111869;28;20481;-69
2023/06/16 10:37:24;;;;;;;8.20;5.00;;;;;;;;;;5113149;28;20462;-69
2023/06/16 10:39:55;;;;;;;4.37;3.93;;;;;;;;;;5094213;28;20406;-70
2023/06/16 10:42:21;;;;;;;5.83;3.73;;;;;;;;;;5112562;28;20378;-70
2023/06/16 10:44:47;;;;;;;5.10;3.90;;;;;;;;;;5112419;28;20433;-70
2023/06/16 10:47:13;;;;;;;3.73;3.40;;;;;;;;;;5112532;28;21280;-70
2023/06/16 10:49:47;;;;;;;13.00;4.70;;;;;;;;;;5113604;28;20399;-70
2023/06/16 10:52:17;;;;;;;5.67;4.23;;;;;;;;;;5116172;28;20823;-70
2023/06/16 10:54:44;;;;;;;5.00;4.50;;;;;;;;;;5115738;28;20438;-69
2023/06/16 10:57:12;;;;;;;5.53;4.53;;;;;;;;;;5116538;28;20419;-69
2023/06/16 10:59:56;;;;;;;6.33;4.30;;;;;;;;;;5116700;28;20390;-70
2023/06/16 11:02:27;;;;;;;7.97;4.33;;;;;;;;;;5115688;28;20402;-69
2023/06/16 11:05:08;;;;;;;4.53;4.07;;;;;;;;;;5115501;28;20467;-70
2023/06/16 11:07:39;;;;;;;5.27;4.00;;;;;;;;;;5115635;28;20405;-69
2023/06/16 11:10:06;;;;;;;5.37;4.23;;;;;;;;;;5116234;28;20829;-70
2023/06/16 11:12:32;;;;;;;5.23;4.73;;;;;;;;;;5116280;28;20409;-70
2023/06/16 11:14:58;;;;;;;5.43;4.23;;;;;;;;;;5115314;28;20512;-70
2023/06/16 11:17:25;;;;;;;5.20;3.70;;;;;;;;;;5115362;28;20453;-69
2023/06/16 11:19:55;;;;;;;5.80;4.20;;;;;;;;;;5115458;28;20452;-69
2023/06/16 11:22:30;;;;;;;5.13;4.57;;;;;;;;;;5116063;28;20425;-69
2023/06/16 11:24:57;;;;;;;4.37;3.67;;;;;;;;;;5115871;28;20490;-69
2023/06/16 11:27:24;;;;;;;5.77;4.67;;;;;;;;;;5115338;28;20498;-69
2023/06/16 11:29:53;;;;;;;7.70;4.87;;;;;;;;;;5115788;28;20402;-69
2023/06/16 11:32:20;;;;;;;5.50;5.00;;;;;;;;;;5114813;28;20410;-69
2023/06/16 11:34:46;;;;;;;4.90;4.40;;;;;;;;;;5114793;28;20596;-70
2023/06/16 11:37:12;;;;;;;5.63;5.00;;;;;;;;;;5116219;28;20379;-70
2023/06/16 11:39:42;;;;;;;5.77;4.07;;;;;;;;;;5115336;28;20420;-70
2023/06/16 11:42:15;;;;;;;6.23;4.37;;;;;;;;;;5115244;28;20810;-69
2023/06/16 11:44:42;;;;;;;7.20;4.30;;;;;;;;;;5115288;28;20481;-69
2023/06/16 11:47:08;;;;;;;5.57;4.33;;;;;;;;;;5114948;28;20401;-70
2023/06/16 11:49:37;;;;;;;5.73;4.57;;;;;;;;;;5114912;28;20403;-69
2023/06/16 11:52:07;;;;;;;4.73;4.23;;;;;;;;;;5114874;28;20912;-69
2023/06/16 11:54:36;;;;;;;5.17;4.77;;;;;;;;;;5115233;28;20458;-70
2023/06/16 11:57:02;;;;;;;5.67;5.10;;;;;;;;;;5115276;28;20414;-70
2023/06/16 11:59:30;;;;;;;5.50;4.50;;;;;;;;;;5114793;28;20452;-70
2023/06/16 12:01:57;;;;;;;7.00;4.90;;;;;;;;;;5114067;28;20394;-70
2023/06/16 12:04:24;;;;;;;7.13;5.03;;;;;;;;;;5114182;28;20514;-70
2023/06/16 12:06:50;;;;;;;8.10;4.57;;;;;;;;;;5114668;28;20397;-69
2023/06/16 12:09:20;;;;;;;6.20;4.80;;;;;;;;;;5114295;28;20390;-71
2023/06/16 12:11:47;;;;;;;4.37;3.97;;;;;;;;;;5114391;28;20394;-70
2023/06/16 12:14:24;;;;;;;5.87;4.17;;;;;;;;;;5114551;28;20488;-70
2023/06/16 12:16:51;;;;;;;5.30;4.80;;;;;;;;;;5114490;28;20413;-69
2023/06/16 12:19:22;;;;;;;6.13;5.10;;;;;;;;;;5113795;28;20425;-69
2023/06/16 12:21:54;;;;;;;5.20;4.70;;;;;;;;;;5114852;28;20406;-69
2023/06/16 12:24:21;;;;;;;5.13;4.60;;;;;;;;;;5114309;28;20394;-70
2023/06/16 12:26:48;;;;;;;5.37;4.87;;;;;;;;;;5114133;28;20414;-70
2023/06/16 12:29:15;;;;;;;5.00;4.50;;;;;;;;;;5114412;28;20405;-69
2023/06/16 12:31:55;;;;;;;4.90;4.50;;;;;;;;;;5114220;28;20398;-70
2023/06/16 12:34:23;;;;;;;5.40;4.70;;;;;;;;;;5113413;28;20452;-70
2023/06/16 12:36:49;;;;;;;5.43;4.70;;;;;;;;;;5114222;28;20403;-69
2023/06/16 12:39:20;;;;;;;5.43;4.93;;;;;;;;;;5114400;28;20752;-70
2023/06/16 12:41:59;;;;;;;5.53;4.93;;;;;;;;;;5113950;28;20387;-68
2023/06/16 12:44:40;;;;;;;4.80;4.40;;;;;;;;;;5114031;28;20496;-70
2023/06/16 12:47:06;;;;;;;7.40;5.00;;;;;;;;;;5113542;28;20462;-69
2023/06/16 12:49:32;;;;;;;5.83;4.50;;;;;;;;;;5113624;28;20446;-70
2023/06/16 12:51:58;;;;;;;5.33;4.80;;;;;;;;;;5113579;28;20463;-70
2023/06/16 12:54:24;;;;;;;5.17;4.50;;;;;;;;;;5112877;28;20438;-69
2023/06/16 12:56:50;;;;;;;7.63;5.20;;;;;;;;;;5114049;28;20408;-69
2023/06/16 12:59:16;;;;;;;7.97;5.50;;;;;;;;;;5113854;28;20905;-70
2023/06/16 13:01:43;;;;;;;4.60;4.10;;;;;;;;;;5114694;28;20390;-70
2023/06/16 13:04:09;;;;;;;6.33;5.10;;;;;;;;;;5113003;28;20826;-70
2023/06/16 13:06:35;;;;;;;5.53;4.97;;;;;;;;;;5113496;28;20417;-69
2023/06/16 13:09:01;;;;;;;5.57;5.03;;;;;;;;;;5113905;28;20403;-69
2023/06/16 13:11:27;;;;;;;4.90;4.40;;;;;;;;;;5113588;28;20774;-70
2023/06/16 13:13:53;;;;;;;5.33;4.80;;;;;;;;;;5112395;28;20820;-70
2023/06/16 13:16:20;;;;;;;8.37;5.00;;;;;;;;;;5112993;28;20426;-69
2023/06/16 13:18:46;;;;;;;6.37;5.50;;;;;;;;;;5113090;28;20407;-70
2023/06/16 13:21:12;;;;;;;5.70;4.60;;;;;;;;;;5114073;28;20452;-70
2023/06/16 13:23:43;;;;;;;4.90;4.40;;;;;;;;;;5113521;28;20403;-70
2023/06/16 13:26:11;;;;;;;5.13;4.63;;;;;;;;;;5112910;28;20988;-70
2023/06/16 13:28:38;;;;;;;5.53;5.03;;;;;;;;;;5113089;28;20953;-70
2023/06/16 13:31:05;;;;;;;6.13;5.10;;;;;;;;;;5113533;28;20402;-70
2023/06/16 13:33:31;;;;;;;8.47;5.27;;;;;;;;;;5112730;28;20450;-69
2023/06/16 13:35:57;;;;;;;5.03;4.50;;;;;;;;;;5112938;28;20593;-70
2023/06/16 13:38:23;;;;;;;7.57;5.13;;;;;;;;;;5113092;28;20403;-70
2023/06/16 13:40:49;;;;;;;5.50;4.80;;;;;;;;;;5113373;28;20906;-69
2023/06/16 13:43:15;;;;;;;6.03;5.50;;;;;;;;;;5112716;28;20483;-69
2023/06/16 13:45:41;;;;;;;6.10;5.10;;;;;;;;;;5112417;28;20426;-70
2023/06/16 13:48:07;;;;;;;6.10;4.80;;;;;;;;;;5112738;28;20414;-70
2023/06/16 13:50:34;;;;;;;5.10;4.60;;;;;;;;;;5112462;28;20438;-70
2023/06/16 13:53:00;;;;;;;6.97;4.97;;;;;;;;;;5113236;28;20868;-70
2023/06/16 13:55:26;;;;;;;5.30;4.70;;;;;;;;;;5093865;28;20434;-70
2023/06/16 13:57:54;;;;;;;5.70;4.70;;;;;;;;;;5112555;28;20441;-70
2023/06/16 14:00:20;;;;;;;4.90;4.40;;;;;;;;;;5113203;28;20497;-70
2023/06/16 14:02:46;;;;;;;4.97;4.57;;;;;;;;;;5112358;28;20399;-70
2023/06/16 14:05:12;;;;;;;6.33;4.90;;;;;;;;;;5112145;28;20441;-71
2023/06/16 14:07:39;;;;;;;5.50;4.37;;;;;;;;;;5112251;28;20403;-70
2023/06/16 14:10:05;;;;;;;5.37;4.80;;;;;;;;;;5113004;28;20402;-71
2023/06/16 14:12:31;;;;;;;5.20;4.30;;;;;;;;;;5113004;28;20391;-71
2023/06/16 14:14:58;;;;;;;5.40;4.90;;;;;;;;;;5111919;28;20537;-70
2023/06/16 14:17:24;;;;;;;5.20;4.70;;;;;;;;;;5112143;28;20438;-69
2023/06/16 14:19:50;;;;;;;4.70;4.30;;;;;;;;;;5112596;28;20927;-70
2023/06/16 14:22:16;;;;;;;5.67;5.07;;;;;;;;;;5112199;28;20743;-73
2023/06/16 14:24:43;;;;;;;5.37;4.87;;;;;;;;;;5113605;28;20410;-71
2023/06/16 14:27:09;;;;;;;4.83;4.40;;;;;;;;;;5116348;28;20417;-70
2023/06/16 14:29:35;;;;;;;7.00;4.30;;;;;;;;;;5116529;28;20406;-71
2023/06/16 14:32:01;;;;;;;5.30;4.80;;;;;;;;;;5116907;28;20503;-71
2023/06/16 14:34:29;;;;;;;5.20;4.43;;;;;;;;;;5115319;28;20526;-70
2023/06/16 14:36:55;;;;;;;5.63;5.10;;;;;;;;;;5116292;28;20406;-70
2023/06/16 14:39:21;;;;;;;5.13;4.70;;;;;;;;;;5116480;28;20466;-70
2023/06/16 14:41:47;;;;;;;6.47;4.97;;;;;;;;;;5098066;28;20398;-71